Time;durP1;ratioP1;P1;durP2;ratioP2;P2;SDS_P1;SDS_P2;PMS_P1;PMS_P2;Temp;Humidity;BMP_temperature;BMP_pressure;BME280_temperature;BME280_humidity;BME280_pressure;Samples;Min_cycle;Max_cycle;Signal;HPM_P1;HPM_P2
2023/04/22 00:01:23;;;;;;;14.17;13.13;;;;;;;8.39;88.07;92489.22;5111109;28;20216;-75
2023/04/22 00:03:49;;;;;;;13.03;11.93;;;;;;;8.11;89.47;92475.78;5113553;28;20259;-75
2023/04/22 00:06:15;;;;;;;12.90;11.93;;;;;;;8.33;89.35;92498.09;5095624;28;20239;-75
2023/04/22 00:08:40;;;;;;;13.97;12.87;;;;;;;8.28;89.28;92509.28;5090456;28;20208;-75
2023/04/22 00:11:06;;;;;;;12.33;11.47;;;;;;;8.28;88.49;92493.69;5106081;28;20239;-74
2023/04/22 00:13:31;;;;;;;12.00;11.10;;;;;;;8.08;89.73;92476.31;5112103;28;20188;-76
2023/04/22 00:15:57;;;;;;;13.00;12.00;;;;;;;8.02;89.94;92472.19;5111086;28;20247;-75
2023/04/22 00:18:22;;;;;;;13.53;12.23;;;;;;;8.14;89.86;92493.44;5112958;28;20192;-75
2023/04/22 00:20:47;;;;;;;13.00;11.83;;;;;;;8.14;90.27;92493.44;5111163;28;20319;-75
2023/04/22 00:23:13;;;;;;;12.23;11.50;;;;;;;8.13;89.81;92493.72;5110200;28;20217;-74
2023/04/22 00:25:39;;;;;;;13.17;12.27;;;;;;;7.94;90.26;92462.34;5110933;27;20227;-76
2023/04/22 00:28:06;;;;;;;12.67;11.77;;;;;;;8.17;90.09;92492.16;5112191;28;20207;-75
2023/04/22 00:30:31;;;;;;;12.47;11.67;;;;;;;8.17;89.49;92490.31;5111451;27;20243;-75
2023/04/22 00:32:56;;;;;;;12.97;12.07;;;;;;;8.00;89.96;92489.88;5111882;28;20184;-75
2023/04/22 00:35:22;;;;;;;11.77;10.93;;;;;;;8.03;89.55;92473.72;5108970;28;20218;-75
2023/04/22 00:37:47;;;;;;;12.73;11.87;;;;;;;8.22;89.33;92488.75;5113798;28;20200;-74
2023/04/22 00:40:13;;;;;;;12.07;11.23;;;;;;;8.16;88.95;92486.19;5111291;28;20235;-74
2023/04/22 00:42:41;;;;;;;11.80;10.90;;;;;;;8.20;89.18;92492.38;5113353;28;20180;-74
2023/04/22 00:45:10;;;;;;;12.30;11.40;;;;;;;7.98;89.80;92484.16;5111020;28;20215;-75
2023/04/22 00:47:35;;;;;;;12.07;11.37;;;;;;;7.78;90.53;92473.06;5112126;28;20220;-74
2023/04/22 00:50:02;;;;;;;12.30;11.30;;;;;;;7.99;91.49;92496.13;5111256;28;20250;-75
2023/04/22 00:52:28;;;;;;;13.47;12.37;;;;;;;7.74;91.72;92475.41;5109665;28;20176;-75
2023/04/22 00:54:53;;;;;;;11.67;10.97;;;;;;;8.00;91.79;92494.28;5110517;28;20220;-75
2023/04/22 00:57:19;;;;;;;10.80;10.10;;;;;;;8.09;91.80;92501.25;5111235;28;20184;-75
2023/04/22 00:59:45;;;;;;;11.87;11.10;;;;;;;7.78;90.64;92457.47;5110479;27;20318;-75
2023/04/22 01:02:11;;;;;;;13.53;12.43;;;;;;;7.92;91.79;92481.84;5109544;28;20254;-75
2023/04/22 01:04:37;;;;;;;12.70;11.80;;;;;;;8.00;90.32;92484.66;5110287;27;20262;-75
2023/04/22 01:07:02;;;;;;;11.93;10.93;;;;;;;8.05;90.16;92510.66;5111015;28;20222;-76
2023/04/22 01:09:28;;;;;;;12.80;12.00;;;;;;;8.09;89.63;92510.91;5110048;28;20200;-75
2023/04/22 01:11:55;;;;;;;13.97;13.10;;;;;;;7.72;90.46;92492.31;5110588;28;20217;-74
2023/04/22 01:14:21;;;;;;;12.53;11.63;;;;;;;7.73;90.84;92506.84;5111310;28;20191;-75
2023/04/22 01:16:47;;;;;;;12.93;12.03;;;;;;;7.72;91.01;92498.25;5110230;28;20235;-75
2023/04/22 01:19:12;;;;;;;13.37;12.17;;;;;;;8.01;90.14;92514.84;5110796;28;20207;-75
2023/04/22 01:21:39;;;;;;;15.50;14.03;;;;;;;8.01;90.47;92503.66;5109231;27;20822;-75
2023/04/22 01:24:06;;;;;;;14.93;13.63;;;;;;;7.93;90.37;92486.78;5110617;28;20188;-75
2023/04/22 01:26:31;;;;;;;14.43;13.13;;;;;;;8.05;90.44;92512.47;5109030;28;20224;-75
2023/04/22 01:28:57;;;;;;;15.10;13.80;;;;;;;8.06;90.04;92507.00;5110389;28;20251;-75
2023/04/22 01:31:22;;;;;;;14.60;13.20;;;;;;;8.09;90.34;92505.72;5110568;27;21254;-75
2023/04/22 01:33:49;;;;;;;15.20;13.80;;;;;;;7.96;90.33;92507.03;5110058;28;20195;-74
2023/04/22 01:36:15;;;;;;;16.13;14.57;;;;;;;7.67;91.27;92474.13;5110672;28;20220;-74
2023/04/22 01:38:40;;;;;;;15.23;13.73;;;;;;;7.44;92.16;92454.69;5109556;28;20255;-75
2023/04/22 01:41:07;;;;;;;15.03;13.63;;;;;;;7.72;92.23;92500.09;5109696;28;21100;-75
2023/04/22 01:43:32;;;;;;;16.33;14.83;;;;;;;7.65;93.04;92487.38;5110364;28;20260;-75
2023/04/22 01:46:02;;;;;;;15.37;14.07;;;;;;;7.69;92.74;92485.78;5110036;28;20223;-75
2023/04/22 01:48:28;;;;;;;15.00;13.80;;;;;;;7.81;92.39;92483.69;5110455;28;20180;-75
2023/04/22 01:50:53;;;;;;;15.47;14.07;;;;;;;7.80;92.84;92492.53;5109108;28;20219;-75
2023/04/22 01:53:19;;;;;;;17.13;15.37;;;;;;;7.58;93.33;92480.91;5110343;28;20199;-75
2023/04/22 01:55:44;;;;;;;15.03;13.67;;;;;;;7.64;94.11;92493.59;5110416;28;20287;-75
2023/04/22 01:58:09;;;;;;;15.73;14.23;;;;;;;7.69;93.49;92491.00;5110534;28;20192;-74
2023/04/22 02:00:35;;;;;;;14.17;13.07;;;;;;;7.64;94.04;92487.63;5110323;28;20212;-75
2023/04/22 02:03:00;;;;;;;15.00;13.80;;;;;;;7.62;94.00;92490.50;5110429;28;20223;-75
2023/04/22 02:05:26;;;;;;;16.13;14.37;;;;;;;7.58;94.03;92483.50;5109204;28;20757;-74
2023/04/22 02:07:52;;;;;;;14.10;12.90;;;;;;;7.67;93.97;92468.94;5110848;28;20247;-74
2023/04/22 02:10:18;;;;;;;12.87;11.70;;;;;;;7.94;92.68;92490.94;5110887;28;20224;-75
2023/04/22 02:12:43;;;;;;;13.43;12.33;;;;;;;8.06;91.65;92491.41;5110503;28;20245;-75
2023/04/22 02:15:09;;;;;;;12.83;11.93;;;;;;;7.94;92.73;92503.94;5109131;27;20261;-74
2023/04/22 02:17:35;;;;;;;13.67;12.47;;;;;;;7.95;93.43;92495.06;5109368;28;20241;-75
2023/04/22 02:20:02;;;;;;;14.20;12.87;;;;;;;8.11;92.60;92501.00;5109926;28;20235;-75
2023/04/22 02:22:28;;;;;;;13.17;11.97;;;;;;;7.99;93.15;92490.13;5109907;28;20180;-75
2023/04/22 02:24:54;;;;;;;12.70;11.73;;;;;;;7.98;93.28;92485.97;5109655;28;20243;-74
2023/04/22 02:27:19;;;;;;;12.40;11.60;;;;;;;8.12;92.48;92502.56;5109901;28;20250;-74
2023/04/22 02:29:45;;;;;;;13.30;12.40;;;;;;;8.04;92.97;92484.91;5109222;28;20256;-74
2023/04/22 02:32:10;;;;;;;12.17;11.20;;;;;;;8.09;93.65;92500.50;5109120;28;20194;-74
2023/04/22 02:34:35;;;;;;;14.73;13.63;;;;;;;8.11;92.92;92488.78;5108969;28;20199;-74
2023/04/22 02:37:01;;;;;;;14.50;13.27;;;;;;;8.13;92.20;92504.91;5110511;28;20191;-74
2023/04/22 02:39:26;;;;;;;14.77;13.50;;;;;;;8.16;92.40;92501.78;5109608;28;20265;-74
2023/04/22 02:41:51;;;;;;;14.93;13.47;;;;;;;8.14;92.31;92498.66;5109543;28;20229;-74
2023/04/22 02:44:17;;;;;;;14.03;12.90;;;;;;;8.22;92.35;92502.53;5109262;28;20195;-74
2023/04/22 02:46:42;;;;;;;15.17;13.87;;;;;;;8.18;92.91;92507.50;5107309;28;20219;-74
2023/04/22 02:49:08;;;;;;;16.63;15.13;;;;;;;7.96;93.60;92493.25;5110755;28;20184;-74
2023/04/22 02:51:33;;;;;;;15.50;14.10;;;;;;;7.92;93.65;92487.81;5108965;28;20307;-74
2023/04/22 02:53:59;;;;;;;15.53;14.00;;;;;;;7.89;94.15;92506.53;5108507;28;20983;-74
2023/04/22 02:56:25;;;;;;;17.13;14.83;;;;;;;7.79;95.00;92503.19;5108488;28;20225;-72
2023/04/22 02:58:50;;;;;;;17.63;15.97;;;;;;;7.87;95.27;92513.84;5110237;28;20184;-72
2023/04/22 03:01:16;;;;;;;15.87;14.43;;;;;;;7.71;95.77;92494.13;5112170;28;20222;-72
2023/04/22 03:03:41;;;;;;;16.63;15.23;;;;;;;7.60;96.25;92507.38;5112495;28;20227;-72
2023/04/22 03:06:07;;;;;;;15.73;14.17;;;;;;;7.56;96.38;92494.16;5112921;27;20227;-72
2023/04/22 03:08:32;;;;;;;17.30;15.63;;;;;;;7.60;96.62;92515.97;5114472;28;20191;-72
2023/04/22 03:10:58;;;;;;;16.13;14.77;;;;;;;7.54;95.93;92509.22;5111936;28;20231;-72
2023/04/22 03:13:23;;;;;;;16.53;14.80;;;;;;;7.33;96.56;92507.66;5112838;28;20219;-72
2023/04/22 03:15:48;;;;;;;15.37;13.93;;;;;;;7.32;96.22;92497.53;5112958;27;20220;-72
2023/04/22 03:18:14;;;;;;;15.33;13.87;;;;;;;7.30;96.61;92505.59;5113294;28;20200;-71
2023/04/22 03:20:39;;;;;;;15.13;13.70;;;;;;;7.26;96.65;92504.56;5112357;28;20212;-72
2023/04/22 03:23:06;;;;;;;16.53;15.20;;;;;;;7.30;97.31;92518.56;5114002;28;20192;-72
2023/04/22 03:25:31;;;;;;;16.33;14.80;;;;;;;7.26;96.95;92496.78;5112834;27;20235;-72
2023/04/22 03:27:57;;;;;;;15.73;14.33;;;;;;;7.36;97.41;92512.34;5113088;28;20177;-72
2023/04/22 03:30:22;;;;;;;16.43;15.13;;;;;;;7.29;97.43;92511.84;5114548;27;20249;-71
2023/04/22 03:32:48;;;;;;;16.77;15.17;;;;;;;7.33;97.12;92505.06;5112307;28;20180;-72
2023/04/22 03:35:13;;;;;;;13.90;12.70;;;;;;;7.50;96.20;92521.16;5113872;27;20226;-72
2023/04/22 03:37:38;;;;;;;15.30;13.83;;;;;;;7.51;95.50;92521.94;5112416;28;20207;-72
2023/04/22 03:40:05;;;;;;;15.10;13.67;;;;;;;7.35;95.89;92521.16;5112150;28;20235;-72
2023/04/22 03:42:30;;;;;;;14.90;13.80;;;;;;;7.41;96.13;92532.34;5112722;28;20199;-71
2023/04/22 03:44:56;;;;;;;15.40;14.20;;;;;;;7.36;96.90;92532.34;5111958;27;20223;-79
2023/04/22 03:47:21;;;;;;;15.23;13.90;;;;;;;7.31;96.71;92533.13;5112149;28;20253;-74
2023/04/22 03:49:46;;;;;;;14.10;12.90;;;;;;;7.43;96.68;92541.44;5112240;27;20227;-75
2023/04/22 03:52:12;;;;;;;15.13;14.00;;;;;;;7.32;96.74;92511.31;5112483;28;20184;-75
2023/04/22 03:54:37;;;;;;;13.30;12.30;;;;;;;7.39;96.04;92521.44;5111797;28;20233;-74
2023/04/22 03:57:02;;;;;;;14.10;13.07;;;;;;;7.39;95.61;92517.00;5113171;28;20188;-73
2023/04/22 03:59:28;;;;;;;13.40;12.40;;;;;;;7.76;94.51;92532.28;5113638;28;20214;-75
2023/04/22 04:01:53;;;;;;;13.03;12.23;;;;;;;7.89;92.94;92521.38;5111401;28;20249;-75
2023/04/22 04:04:19;;;;;;;14.73;13.53;;;;;;;7.85;93.51;92536.69;5112128;28;20189;-74
2023/04/22 04:06:44;;;;;;;14.40;12.97;;;;;;;7.89;93.95;92545.50;5111360;28;20218;-75
2023/04/22 04:09:10;;;;;;;13.70;12.63;;;;;;;7.85;93.97;92534.09;5111712;28;20759;-75
2023/04/22 04:11:36;;;;;;;15.23;14.10;;;;;;;8.03;93.12;92523.13;5111482;27;20226;-74
2023/04/22 04:14:02;;;;;;;14.30;13.07;;;;;;;8.47;91.63;92536.25;5110780;28;20283;-73
2023/04/22 04:16:27;;;;;;;13.97;12.77;;;;;;;8.85;90.58;92553.78;5110656;27;20220;-74
2023/04/22 04:18:53;;;;;;;14.87;13.43;;;;;;;9.01;88.87;92528.44;5112527;28;20185;-74
2023/04/22 04:21:18;;;;;;;15.37;13.87;;;;;;;9.25;87.87;92542.31;5111371;28;20247;-74
2023/04/22 04:23:43;;;;;;;16.00;14.40;;;;;;;9.28;87.89;92533.94;5111896;28;20204;-75
2023/04/22 04:26:09;;;;;;;14.70;13.37;;;;;;;9.53;87.08;92557.22;5111879;28;20235;-75
2023/04/22 04:28:35;;;;;;;16.40;14.83;;;;;;;9.48;87.83;92552.81;5112453;28;20207;-74
2023/04/22 04:31:04;;;;;;;15.70;14.30;;;;;;;9.50;87.95;92552.53;5110662;28;20227;-73
2023/04/22 04:33:31;;;;;;;19.53;17.73;;;;;;;9.76;86.61;92554.66;5104512;28;20177;-73
2023/04/22 04:35:57;;;;;;;19.83;17.50;;;;;;;9.90;85.97;92554.03;5108092;28;20223;-74
2023/04/22 04:38:23;;;;;;;17.93;16.43;;;;;;;9.86;85.50;92556.41;5109777;28;20192;-73
2023/04/22 04:40:49;;;;;;;18.77;17.10;;;;;;;9.72;86.14;92545.84;5109923;27;20248;-73
2023/04/22 04:43:15;;;;;;;19.07;17.17;;;;;;;9.78;87.14;92573.44;5109052;28;20216;-74
2023/04/22 04:45:45;;;;;;;20.10;18.10;;;;;;;9.87;86.22;92568.38;5108788;28;20227;-74
2023/04/22 04:48:13;;;;;;;18.63;16.77;;;;;;;9.88;86.19;92583.00;5111258;28;20206;-74
2023/04/22 04:50:41;;;;;;;19.17;17.27;;;;;;;9.83;86.53;92570.00;5108363;27;20219;-76
2023/04/22 04:53:07;;;;;;;16.90;15.40;;;;;;;9.86;86.50;92579.88;5109920;28;20222;-69
2023/04/22 04:55:32;;;;;;;19.37;17.47;;;;;;;9.97;86.64;92583.97;5108984;28;20220;-70
2023/04/22 04:57:58;;;;;;;17.83;15.33;;;;;;;10.17;85.64;92593.44;5111202;28;20201;-68
2023/04/22 05:00:23;;;;;;;18.17;16.47;;;;;;;10.33;84.48;92598.25;5110927;28;20240;-68
2023/04/22 05:02:48;;;;;;;19.97;18.27;;;;;;;10.32;85.05;92601.91;5110487;28;20219;-69
2023/04/22 05:05:14;;;;;;;20.40;17.00;;;;;;;10.43;83.75;92579.84;5109749;28;20220;-70
2023/04/22 05:07:39;;;;;;;17.50;15.53;;;;;;;10.39;83.56;92591.13;5111212;28;20237;-69
2023/04/22 05:10:05;;;;;;;17.93;15.87;;;;;;;10.31;83.82;92595.13;5110118;27;20220;-71
2023/04/22 05:12:31;;;;;;;19.43;17.40;;;;;;;10.35;84.23;92597.97;5111159;28;21053;-68
2023/04/22 05:14:56;;;;;;;18.10;16.27;;;;;;;10.43;83.70;92597.38;5109906;27;20224;-70
2023/04/22 05:17:21;;;;;;;18.50;16.67;;;;;;;10.31;84.23;92592.53;5106285;28;20223;-69
2023/04/22 05:19:47;;;;;;;18.33;16.43;;;;;;;10.57;86.48;92599.00;5108426;28;20231;-68
2023/04/22 05:22:12;;;;;;;19.13;17.43;;;;;;;10.47;84.47;92588.72;5110771;28;20185;-69
2023/04/22 05:24:38;;;;;;;19.87;17.80;;;;;;;10.77;82.52;92606.63;5110366;27;20203;-69
2023/04/22 05:27:03;;;;;;;18.23;16.53;;;;;;;10.95;81.77;92605.09;5108691;28;20369;-71
2023/04/22 05:29:30;;;;;;;17.83;16.23;;;;;;;11.07;81.35;92595.81;5109391;28;20180;-70
2023/04/22 05:31:56;;;;;;;17.63;16.03;;;;;;;11.90;78.71;92605.59;5109776;28;20200;-69
2023/04/22 05:34:21;;;;;;;17.93;16.17;;;;;;;13.22;71.96;92616.03;5109936;28;20176;-68
2023/04/22 05:36:46;;;;;;;17.77;16.00;;;;;;;12.82;72.86;92620.22;5109421;28;20227;-69
2023/04/22 05:39:12;;;;;;;17.87;15.37;;;;;;;12.74;73.07;92620.88;5109927;28;20193;-68
2023/04/22 05:41:37;;;;;;;16.87;15.47;;;;;;;12.78;73.60;92625.25;5110540;28;20240;-69
2023/04/22 05:44:03;;;;;;;17.70;16.00;;;;;;;12.75;73.73;92622.44;5110236;28;20211;-69
2023/04/22 05:46:28;;;;;;;19.20;17.20;;;;;;;12.77;73.03;92623.72;5108777;27;20233;-68
2023/04/22 05:48:54;;;;;;;18.40;16.60;;;;;;;12.73;73.20;92624.59;5106017;28;20191;-72
2023/04/22 05:51:21;;;;;;;20.47;16.73;;;;;;;12.53;73.33;92622.31;5108925;27;20229;-72
2023/04/22 05:53:46;;;;;;;16.43;14.93;;;;;;;12.36;74.67;92614.22;5108752;28;20192;-73
2023/04/22 05:56:12;;;;;;;17.77;16.07;;;;;;;11.93;76.32;92618.13;5107611;28;20223;-75
2023/04/22 05:58:37;;;;;;;18.00;16.40;;;;;;;12.55;74.22;92607.09;5109138;28;20180;-73
2023/04/22 06:01:02;;;;;;;18.33;16.33;;;;;;;14.79;66.84;92612.81;5107776;28;20260;-75
2023/04/22 06:03:28;;;;;;;17.53;14.97;;;;;;;18.12;53.89;92635.91;5107957;28;20287;-75
2023/04/22 06:05:54;;;;;;;15.07;13.67;;;;;;;20.77;46.38;92622.66;5107611;28;20241;-75
2023/04/22 06:08:19;;;;;;;15.23;13.73;;;;;;;20.23;46.67;92619.72;5108867;28;20195;-75
2023/04/22 06:10:44;;;;;;;17.30;15.60;;;;;;;17.58;53.34;92617.38;5109033;27;20223;-73
2023/04/22 06:13:10;;;;;;;16.40;14.63;;;;;;;15.16;61.08;92611.56;5107406;28;20176;-73
2023/04/22 06:15:36;;;;;;;17.03;15.13;;;;;;;15.00;63.06;92613.06;5109171;28;20219;-73
2023/04/22 06:18:01;;;;;;;17.70;15.83;;;;;;;14.46;64.73;92606.31;5108631;28;20176;-75
2023/04/22 06:20:27;;;;;;;23.13;15.13;;;;;;;13.38;68.60;92612.81;5099398;28;20237;-74
2023/04/22 06:22:52;;;;;;;16.53;14.80;;;;;;;12.43;71.39;92612.03;5089425;28;20176;-74
2023/04/22 06:25:17;;;;;;;16.40;15.00;;;;;;;12.46;72.79;92612.25;5097142;28;20212;-74
2023/04/22 06:27:43;;;;;;;16.20;14.90;;;;;;;12.40;73.45;92612.63;5107413;28;20203;-73
2023/04/22 06:30:10;;;;;;;17.90;16.17;;;;;;;13.06;72.22;92615.56;5105662;28;20238;-72
2023/04/22 06:32:36;;;;;;;17.37;15.77;;;;;;;13.33;70.39;92614.75;5107288;28;20184;-73
2023/04/22 06:35:02;;;;;;;16.73;15.10;;;;;;;13.50;68.32;92612.28;5106302;28;20227;-76
2023/04/22 06:37:27;;;;;;;18.30;15.67;;;;;;;13.26;69.34;92611.75;5107176;28;20204;-70
2023/04/22 06:39:52;;;;;;;17.80;16.20;;;;;;;13.02;70.81;92626.91;5110052;28;20241;-75
2023/04/22 06:42:18;;;;;;;17.90;16.10;;;;;;;12.87;71.74;92609.63;5110701;28;20203;-75
2023/04/22 06:44:43;;;;;;;17.37;15.67;;;;;;;13.16;70.34;92628.47;5108222;27;20219;-75
2023/04/22 06:47:08;;;;;;;17.20;15.47;;;;;;;12.74;72.71;92599.94;5108974;28;20212;-75
2023/04/22 06:49:37;;;;;;;19.80;16.67;;;;;;;13.21;70.18;92583.81;5108227;28;20194;-75
2023/04/22 06:52:03;;;;;;;18.07;16.20;;;;;;;13.48;68.89;92638.03;5108330;28;20256;-75
2023/04/22 06:54:28;;;;;;;19.50;17.67;;;;;;;12.76;71.17;92634.47;5108724;28;20186;-75
2023/04/22 06:56:54;;;;;;;20.70;18.80;;;;;;;13.28;69.62;92631.34;5108436;28;20172;-75
2023/04/22 06:59:19;;;;;;;20.97;16.63;;;;;;;13.07;70.90;92643.34;5108872;28;20176;-75
2023/04/22 07:01:45;;;;;;;19.83;18.03;;;;;;;13.08;72.02;92631.78;5108583;28;20223;-75
2023/04/22 07:04:10;;;;;;;19.93;17.90;;;;;;;13.44;69.20;92640.47;5109310;28;20207;-75
2023/04/22 07:06:36;;;;;;;18.70;16.77;;;;;;;13.47;69.34;92634.63;5106898;28;20253;-75
2023/04/22 07:09:01;;;;;;;18.20;16.30;;;;;;;13.56;70.07;92632.06;5110023;28;20187;-75
2023/04/22 07:11:27;;;;;;;19.07;17.00;;;;;;;13.52;68.73;92636.38;5108132;28;20223;-75
2023/04/22 07:13:52;;;;;;;19.83;17.70;;;;;;;13.62;67.99;92636.91;5108952;28;20184;-75
2023/04/22 07:16:18;;;;;;;18.93;16.93;;;;;;;13.21;69.69;92641.47;5108763;27;20980;-75
2023/04/22 07:18:43;;;;;;;17.77;16.00;;;;;;;12.95;69.41;92638.53;5109289;28;20188;-75
2023/04/22 07:21:09;;;;;;;16.23;14.90;;;;;;;12.82;70.15;92638.56;5108354;28;20212;-74
2023/04/22 07:23:34;;;;;;;17.23;15.77;;;;;;;13.09;68.81;92643.78;5109659;28;20172;-70
2023/04/22 07:25:59;;;;;;;18.03;16.13;;;;;;;13.24;68.32;92651.38;5108423;27;20232;-71
2023/04/22 07:28:25;;;;;;;18.73;16.63;;;;;;;13.32;67.32;92650.69;5108753;28;20188;-71
2023/04/22 07:30:53;;;;;;;17.60;16.10;;;;;;;13.01;70.66;92641.88;5109072;27;20224;-71
2023/04/22 07:33:18;;;;;;;18.30;16.57;;;;;;;13.72;68.93;92641.16;5107767;28;20195;-71
2023/04/22 07:35:43;;;;;;;18.90;17.00;;;;;;;14.08;68.10;92647.16;5108391;28;20255;-70
2023/04/22 07:38:09;;;;;;;18.47;15.73;;;;;;;13.88;67.23;92658.91;5111018;28;20188;-70
2023/04/22 07:40:34;;;;;;;19.50;17.67;;;;;;;13.96;66.26;92652.94;5108671;28;20231;-70
2023/04/22 07:43:00;;;;;;;19.43;17.53;;;;;;;13.74;67.03;92660.78;5110071;28;20813;-71
2023/04/22 07:45:25;;;;;;;18.40;16.53;;;;;;;13.14;68.70;92650.78;5110519;28;20235;-70
2023/04/22 07:47:51;;;;;;;20.30;17.77;;;;;;;13.46;68.87;92640.97;5112220;28;20204;-71
2023/04/22 07:50:16;;;;;;;18.17;16.07;;;;;;;13.20;68.84;92647.03;5113917;28;20319;-71
2023/04/22 07:52:41;;;;;;;18.80;16.63;;;;;;;13.48;69.89;92651.91;5112143;28;20198;-71
2023/04/22 07:55:07;;;;;;;18.10;16.30;;;;;;;13.12;70.52;92631.97;5112081;27;20246;-70
2023/04/22 07:57:37;;;;;;;17.60;16.03;;;;;;;13.13;69.01;92650.03;5111798;28;20204;-70
2023/04/22 08:00:06;;;;;;;18.27;16.57;;;;;;;13.20;68.98;92632.03;5111279;27;20313;-71
2023/04/22 08:02:32;;;;;;;22.73;18.77;;;;;;;13.99;67.14;92638.47;5112227;28;20229;-73
2023/04/22 08:04:57;;;;;;;17.97;16.07;;;;;;;14.08;66.84;92634.81;5111169;27;20295;-70
2023/04/22 08:07:22;;;;;;;16.80;14.63;;;;;;;14.36;63.39;92633.66;5111713;28;20254;-71
2023/04/22 08:09:48;;;;;;;15.50;14.07;;;;;;;14.49;63.03;92640.66;5112477;27;20253;-71
2023/04/22 08:12:13;;;;;;;15.37;13.70;;;;;;;14.80;62.30;92634.63;5112204;28;20192;-71
2023/04/22 08:14:38;;;;;;;15.50;14.10;;;;;;;14.47;64.25;92631.53;5111932;28;20188;-71
2023/04/22 08:17:04;;;;;;;15.17;13.67;;;;;;;14.98;62.22;92641.50;5112432;28;20180;-71
2023/04/22 08:19:29;;;;;;;14.30;13.20;;;;;;;15.17;59.30;92639.41;5111301;28;20212;-71
2023/04/22 08:21:55;;;;;;;14.87;13.60;;;;;;;14.72;61.57;92622.22;5112013;28;20192;-71
2023/04/22 08:24:20;;;;;;;13.73;12.57;;;;;;;14.65;60.92;92627.13;5112660;28;20206;-71
2023/04/22 08:26:46;;;;;;;14.40;13.13;;;;;;;14.83;60.30;92634.03;5112852;27;20226;-71
2023/04/22 08:29:11;;;;;;;13.63;12.37;;;;;;;15.37;58.78;92641.47;5111749;28;20199;-71
2023/04/22 08:31:37;;;;;;;13.80;12.60;;;;;;;14.99;60.93;92633.31;5111628;27;20228;-71
2023/04/22 08:34:02;;;;;;;14.17;12.93;;;;;;;14.62;61.34;92627.72;5110503;28;20172;-71
2023/04/22 08:36:29;;;;;;;14.07;12.87;;;;;;;14.87;61.16;92629.69;5111131;28;20216;-74
2023/04/22 08:38:54;;;;;;;14.73;13.50;;;;;;;15.06;61.41;92631.03;5112217;28;20225;-74
2023/04/22 08:41:21;;;;;;;13.40;12.30;;;;;;;15.45;59.33;92624.94;5096398;28;20216;-74
2023/04/22 08:43:48;;;;;;;14.50;13.20;;;;;;;14.76;58.45;92613.44;5090902;28;20188;-74
2023/04/22 08:46:14;;;;;;;12.87;11.67;;;;;;;15.04;58.98;92625.28;5089456;28;20224;-74
2023/04/22 08:48:40;;;;;;;13.13;11.83;;;;;;;15.25;56.93;92614.97;5091143;28;20180;-74
2023/04/22 08:51:07;;;;;;;12.97;11.87;;;;;;;15.50;56.84;92616.91;5096225;28;20223;-74
2023/04/22 08:53:32;;;;;;;13.83;12.30;;;;;;;15.75;56.20;92608.28;5100594;28;20192;-75
2023/04/22 08:55:59;;;;;;;13.40;12.30;;;;;;;15.37;56.27;92612.53;5101338;28;20221;-75
2023/04/22 08:58:26;;;;;;;12.90;11.70;;;;;;;15.13;54.86;92614.81;5100775;28;20200;-74
2023/04/22 09:00:54;;;;;;;12.50;11.20;;;;;;;14.94;57.30;92614.28;5092695;28;20237;-74
2023/04/22 09:03:21;;;;;;;14.90;12.13;;;;;;;15.02;56.76;92580.13;5091909;28;20224;-73
2023/04/22 09:05:50;;;;;;;13.27;11.97;;;;;;;15.41;55.47;92589.81;5088996;28;20220;-73
2023/04/22 09:08:16;;;;;;;12.93;11.97;;;;;;;15.51;55.07;92607.94;5091514;28;20188;-74
2023/04/22 09:10:41;;;;;;;13.47;12.00;;;;;;;15.35;56.18;92596.25;5096900;28;20235;-71
2023/04/22 09:13:08;;;;;;;13.10;11.90;;;;;;;15.02;56.93;92603.03;5100658;28;20200;-72
2023/04/22 09:15:33;;;;;;;14.30;13.03;;;;;;;15.03;58.24;92602.72;5098932;28;20311;-72
2023/04/22 09:17:58;;;;;;;13.03;12.13;;;;;;;15.18;56.86;92586.50;5101170;28;20208;-70
2023/04/22 09:20:28;;;;;;;13.73;12.73;;;;;;;15.38;55.46;92599.09;5094977;28;20244;-73
2023/04/22 09:22:56;;;;;;;12.60;11.67;;;;;;;15.43;53.41;92569.22;5090688;28;20199;-72
2023/04/22 09:25:22;;;;;;;11.77;10.50;;;;;;;15.36;53.43;92595.19;5089038;28;20322;-71
2023/04/22 09:27:52;;;;;;;11.80;10.70;;;;;;;15.02;54.55;92592.50;5088873;28;20216;-72
2023/04/22 09:30:36;;;;;;;11.90;10.97;;;;;;;15.55;53.50;92590.44;5088161;28;20217;-73
2023/04/22 09:33:03;;;;;;;13.23;11.83;;;;;;;15.53;52.91;92572.31;5091654;28;20220;-72
2023/04/22 09:35:30;;;;;;;12.17;11.30;;;;;;;15.68;53.17;92590.31;5088451;28;20228;-72
2023/04/22 09:37:57;;;;;;;11.90;10.57;;;;;;;15.68;51.72;92555.31;5089817;28;20205;-73
2023/04/22 09:40:23;;;;;;;12.27;11.07;;;;;;;15.76;50.54;92572.97;5092221;28;20221;-73
2023/04/22 09:42:57;;;;;;;11.97;11.07;;;;;;;16.13;47.41;92579.41;5095719;28;20899;-72
2023/04/22 09:45:35;;;;;;;11.97;11.00;;;;;;;15.95;48.88;92583.94;5098292;28;20221;-73
2023/04/22 09:48:08;;;;;;;12.93;11.73;;;;;;;15.86;48.51;92583.16;5098335;28;20187;-73
2023/04/22 09:50:34;;;;;;;13.73;11.20;;;;;;;15.28;51.16;92582.81;5097316;28;20228;-73
2023/04/22 09:53:11;;;;;;;12.53;11.53;;;;;;;16.09;49.89;92572.16;5097750;28;20187;-70
2023/04/22 09:55:43;;;;;;;12.80;11.57;;;;;;;16.65;50.42;92573.75;5094368;28;20224;-74
2023/04/22 09:58:11;;;;;;;11.60;10.63;;;;;;;16.96;48.01;92574.25;5089346;28;20188;-73
2023/04/22 10:00:46;;;;;;;11.27;10.57;;;;;;;16.47;46.47;92582.78;5093522;28;20302;-70
2023/04/22 10:03:12;;;;;;;11.40;10.23;;;;;;;16.01;45.08;92580.06;5100494;28;20227;-69
2023/04/22 10:05:38;;;;;;;11.13;10.43;;;;;;;15.97;46.83;92573.84;5097569;28;20229;-70
2023/04/22 10:08:04;;;;;;;11.67;10.87;;;;;;;16.57;44.13;92558.75;5091363;28;20193;-69
2023/04/22 10:10:30;;;;;;;11.53;10.53;;;;;;;16.38;42.56;92562.78;5096377;28;20243;-70
2023/04/22 10:12:56;;;;;;;10.73;9.87;;;;;;;16.66;40.99;92569.22;5100104;28;20193;-70
2023/04/22 10:15:23;;;;;;;9.07;8.60;;;;;;;15.80;48.28;92576.50;5094010;28;21072;-68
2023/04/22 10:17:51;;;;;;;10.37;9.43;;;;;;;15.48;48.29;92567.25;5095138;28;20188;-68
2023/04/22 10:20:18;;;;;;;9.03;8.43;;;;;;;15.30;49.17;92572.75;5092819;28;20280;-68
2023/04/22 10:22:45;;;;;;;10.10;8.93;;;;;;;15.19;48.75;92568.88;5088518;28;20200;-68
2023/04/22 10:25:24;;;;;;;9.63;8.90;;;;;;;14.89;48.24;92580.25;5086674;28;20229;-70
2023/04/22 10:28:01;;;;;;;8.37;7.87;;;;;;;14.78;48.81;92574.50;5086270;28;20219;-67
2023/04/22 10:30:31;;;;;;;9.50;8.50;;;;;;;14.92;48.98;92582.25;5092769;28;20239;-67
2023/04/22 10:33:27;;;;;;;9.00;8.50;;;;;;;15.20;48.46;92580.94;5095131;28;20208;-68
2023/04/22 10:36:15;;;;;;;9.33;8.70;;;;;;;15.25;48.18;92575.53;5085465;28;20233;-68
2023/04/22 10:38:53;;;;;;;9.23;8.43;;;;;;;15.42;49.45;92581.63;5087202;28;20177;-69
2023/04/22 10:41:28;;;;;;;9.90;9.17;;;;;;;14.99;48.59;92501.09;5087047;28;20229;-67
2023/04/22 10:43:58;;;;;;;9.30;8.37;;;;;;;15.79;48.42;92577.59;5088522;28;20194;-68
2023/04/22 10:46:33;;;;;;;9.50;9.00;;;;;;;15.87;48.26;92576.84;5101971;28;20304;-69
2023/04/22 10:49:08;;;;;;;9.90;9.13;;;;;;;15.81;46.34;92575.44;5085592;28;20193;-67
2023/04/22 10:51:41;;;;;;;9.17;8.50;;;;;;;15.28;47.57;92575.69;5087352;28;20273;-70
2023/04/22 10:54:35;;;;;;;9.33;8.83;;;;;;;15.34;48.03;92561.31;5086637;28;20189;-68
2023/04/22 10:57:04;;;;;;;10.17;9.50;;;;;;;15.41;49.33;92563.53;5088225;28;20242;-70
2023/04/22 10:59:31;;;;;;;9.87;9.17;;;;;;;15.39;47.77;92557.78;5085644;28;20204;-71
2023/04/22 11:02:01;;;;;;;10.17;9.57;;;;;;;15.30;48.97;92554.34;5108177;28;20215;-69
2023/04/22 11:04:26;;;;;;;10.90;9.93;;;;;;;15.71;49.25;92563.38;5106398;28;20207;-70
2023/04/22 11:07:16;;;;;;;10.70;9.83;;;;;;;15.79;49.42;92567.06;5107505;28;20211;-69
2023/04/22 11:09:44;;;;;;;10.60;9.90;;;;;;;16.17;48.10;92570.59;5106401;27;20196;-71
2023/04/22 11:12:37;;;;;;;10.33;9.63;;;;;;;15.92;47.57;92566.16;5106788;28;20206;-71
2023/04/22 11:15:07;;;;;;;10.53;9.93;;;;;;;15.66;48.13;92562.72;5104682;28;20246;-70
2023/04/22 11:17:35;;;;;;;10.33;9.47;;;;;;;15.66;48.40;92562.72;5106952;28;20200;-71
2023/04/22 11:20:02;;;;;;;10.90;10.10;;;;;;;16.07;48.61;92557.75;5109753;28;20231;-71